Time;durP1;ratioP1;P1;durP2;ratioP2;P2;SDS_P1;SDS_P2;PMS_P1;PMS_P2;Temp;Humidity;BMP_temperature;BMP_pressure;BME280_temperature;BME280_humidity;BME280_pressure;Samples;Min_cycle;Max_cycle;Signal;HPM_P1;HPM_P2
2022/05/28 00:02:22;;;;;;;;;;;;;;;17.59;58.39;99785.19;1677750;85;20557;-62
2022/05/28 00:05:29;;;;;;;;;;;;;;;17.55;58.50;99784.80;1677221;85;20523;-62
2022/05/28 00:08:34;;;;;;;;;;;;;;;17.51;58.59;99783.61;1691172;85;20209;-62
2022/05/28 00:11:42;;;;;;;;;;;;;;;17.46;58.68;99787.61;1691250;85;20210;-63
2022/05/28 00:14:47;;;;;;;;;;;;;;;17.44;58.78;99804.13;1691254;85;20226;-63
2022/05/28 00:17:51;;;;;;;;;;;;;;;17.41;58.84;99815.66;1690149;85;20210;-61
2022/05/28 00:20:56;;;;;;;;;;;;;;;17.36;58.97;99819.10;1691499;85;20523;-63
2022/05/28 00:24:01;;;;;;;;;;;;;;;17.33;59.01;99841.70;1691215;85;20226;-63
2022/05/28 00:27:05;;;;;;;;;;;;;;;17.25;58.95;99853.65;1691575;85;20206;-62
2022/05/28 00:30:13;;;;;;;;;;;;;;;17.08;58.80;99854.80;1691762;85;20274;-63
2022/05/28 00:33:19;;;;;;;;;;;;;;;16.87;58.65;99857.17;1690920;85;20182;-60
2022/05/28 00:36:27;;;;;;;;;;;;;;;16.63;58.64;99868.59;1691807;85;20551;-64
2022/05/28 00:39:31;;;;;;;;;;;;;;;16.42;58.66;99882.77;1691151;85;20255;-61
2022/05/28 00:42:35;;;;;;;;;;;;;;;16.21;58.67;99884.52;1691818;84;20554;-61
2022/05/28 00:45:40;;;;;;;;;;;;;;;16.01;58.73;99892.97;1691071;85;20641;-59
2022/05/28 00:48:51;;;;;;;;;;;;;;;15.83;58.77;99873.55;1691742;85;20198;-58
2022/05/28 00:51:51;;;;;;;;;;;;;;;15.66;58.85;99861.34;1691875;85;20277;-58
2022/05/28 00:54:56;;;;;;;;;;;;;;;15.55;59.00;99870.84;1691233;85;20543;-58
2022/05/28 00:58:01;;;;;;;;;;;;;;;15.46;59.10;99861.14;1691733;85;20202;-59
2022/05/28 01:01:06;;;;;;;;;;;;;;;15.39;59.18;99861.69;1691633;85;20198;-63
2022/05/28 01:04:15;;;;;;;;;;;;;;;15.31;59.25;99866.90;1691687;85;20210;-63
2022/05/28 01:07:36;;;;;;;;;;;;;;;15.26;59.33;99885.15;1685995;85;20228;-62
2022/05/28 01:10:50;;;;;;;;;;;;;;;15.20;59.38;99881.89;1682407;85;20516;-63
2022/05/28 01:13:58;;;;;;;;;;;;;;;15.12;59.42;99881.61;1678359;85;20251;-57
2022/05/28 01:17:09;;;;;;;;;;;;;;;15.06;59.45;99871.45;1653454;87;20281;-58
2022/05/28 01:20:17;;;;;;;;;;;;;;;15.02;59.51;99882.58;1682427;85;20572;-58
2022/05/28 01:23:26;;;;;;;;;;;;;;;14.96;59.60;99887.59;1678088;85;20232;-57
2022/05/28 01:26:52;;;;;;;;;;;;;;;14.92;59.70;99898.74;1640011;86;20244;-59
2022/05/28 01:30:05;;;;;;;;;;;;;;;14.92;59.81;99912.53;1610716;88;20262;-58
2022/05/28 01:33:11;;;;;;;;;;;;;;;14.91;59.87;99912.19;1678143;85;20341;-56
2022/05/28 01:36:18;;;;;;;;;;;;;;;14.90;59.96;99917.40;1700734;83;20194;-57
2022/05/28 01:39:24;;;;;;;;;;;;;;;14.92;60.11;99922.17;1668970;86;20566;-56
2022/05/28 01:42:29;;;;;;;;;;;;;;;14.95;60.21;99923.94;1698924;84;20288;-58
2022/05/28 01:45:34;;;;;;;;;;;;;;;14.96;60.26;99922.90;1666244;86;20255;-59
2022/05/28 01:48:41;;;;;;;;;;;;;;;14.95;60.30;99921.73;1671229;85;20740;-57
2022/05/28 01:51:57;;;;;;;;;;;;;;;14.92;60.33;99923.00;1662683;85;20280;-59
2022/05/28 01:55:01;;;;;;;;;;;;;;;14.91;60.37;99921.84;1686984;85;20570;-58
2022/05/28 01:58:06;;;;;;;;;;;;;;;14.87;60.43;99930.23;1657901;86;20280;-58
2022/05/28 02:01:12;;;;;;;;;;;;;;;14.85;60.50;99937.34;1656661;86;20640;-58
2022/05/28 02:04:17;;;;;;;;;;;;;;;14.83;60.58;99942.20;1657308;86;20260;-58
2022/05/28 02:07:23;;;;;;;;;;;;;;;14.81;60.57;99951.20;1657795;86;20228;-58
2022/05/28 02:10:29;;;;;;;;;;;;;;;14.78;60.60;99943.89;1675327;86;20231;-59
2022/05/28 02:13:39;;;;;;;;;;;;;;;14.74;60.65;99934.38;1675589;86;20602;-57
2022/05/28 02:16:48;;;;;;;;;;;;;;;14.72;60.71;99942.86;1675593;86;20215;-58
2022/05/28 02:20:12;;;;;;;;;;;;;;;14.72;60.79;99947.51;1674710;86;20278;-57
2022/05/28 02:23:41;;;;;;;;;;;;;;;14.71;60.81;99963.73;1675182;85;20219;-57
2022/05/28 02:26:59;;;;;;;;;;;;;;;14.67;60.80;99972.09;1675998;86;20270;-58
2022/05/28 02:30:05;;;;;;;;;;;;;;;14.61;60.83;99961.92;1676161;86;20207;-58
2022/05/28 02:33:13;;;;;;;;;;;;;;;14.55;60.86;99957.27;1661585;86;20191;-58
2022/05/28 02:36:21;;;;;;;;;;;;;;;14.50;60.92;99949.64;1676126;86;20544;-58
2022/05/28 02:39:26;;;;;;;;;;;;;;;14.47;60.97;99950.07;1675461;86;20207;-58
2022/05/28 02:42:32;;;;;;;;;;;;;;;14.46;61.04;99949.73;1676134;86;20179;-58
2022/05/28 02:45:37;;;;;;;;;;;;;;;14.48;61.10;99945.39;1674370;86;20571;-58
2022/05/28 02:48:42;;;;;;;;;;;;;;;14.51;61.10;99956.84;1655322;85;20206;-57
2022/05/28 02:51:48;;;;;;;;;;;;;;;14.55;61.15;99948.48;1676106;86;20270;-60
2022/05/28 02:54:53;;;;;;;;;;;;;;;14.57;61.17;99964.80;1670037;86;20187;-58
2022/05/28 02:58:02;;;;;;;;;;;;;;;14.60;61.27;99969.88;1738128;82;20202;-58
2022/05/28 03:01:08;;;;;;;;;;;;;;;14.62;61.25;99975.48;1710836;84;20275;-59
2022/05/28 03:04:13;;;;;;;;;;;;;;;14.60;61.22;99975.39;1683672;84;20803;-59
2022/05/28 03:07:19;;;;;;;;;;;;;;;14.59;61.27;99980.56;1683608;85;20221;-58
2022/05/28 03:10:24;;;;;;;;;;;;;;;14.57;61.25;99999.23;1686611;84;20614;-59
2022/05/28 03:13:29;;;;;;;;;;;;;;;14.54;61.30;99996.91;1712152;83;20248;-59
2022/05/28 03:16:34;;;;;;;;;;;;;;;14.55;61.39;100001.34;1712219;84;20203;-59
2022/05/28 03:19:41;;;;;;;;;;;;;;;14.54;61.42;100005.16;1712139;83;20200;-58
2022/05/28 03:22:47;;;;;;;;;;;;;;;14.55;61.47;100001.34;1693047;84;20284;-58
2022/05/28 03:25:52;;;;;;;;;;;;;;;14.53;61.45;99994.67;1711956;84;20184;-58
2022/05/28 03:28:59;;;;;;;;;;;;;;;14.50;61.48;100014.89;1677587;85;20532;-58
2022/05/28 03:32:04;;;;;;;;;;;;;;;14.48;61.55;100010.11;1712278;84;20196;-58
2022/05/28 03:35:11;;;;;;;;;;;;;;;14.47;61.59;100008.42;1708702;83;20177;-58
2022/05/28 03:38:16;;;;;;;;;;;;;;;14.46;61.58;100006.20;1667449;85;20266;-58
2022/05/28 03:41:21;;;;;;;;;;;;;;;14.47;61.65;100010.66;1700994;84;20208;-60
2022/05/28 03:44:26;;;;;;;;;;;;;;;14.52;61.69;100007.27;1696815;83;20256;-59
2022/05/28 03:47:32;;;;;;;;;;;;;;;14.55;61.70;100006.33;1667298;85;20195;-58
2022/05/28 03:50:38;;;;;;;;;;;;;;;14.58;61.64;100012.80;1705846;83;20603;-59
2022/05/28 03:53:44;;;;;;;;;;;;;;;14.61;61.70;99997.73;1668390;85;20212;-58
2022/05/28 03:56:51;;;;;;;;;;;;;;;14.66;61.74;100004.84;1668507;83;20232;-56
2022/05/28 03:59:57;;;;;;;;;;;;;;;14.72;61.70;100021.90;1687025;84;20249;-56
2022/05/28 04:03:02;;;;;;;;;;;;;;;14.76;61.73;100020.44;1677486;85;20251;-59
2022/05/28 04:06:08;;;;;;;;;;;;;;;14.81;61.73;100017.87;1687217;85;20617;-56
2022/05/28 04:09:13;;;;;;;;;;;;;;;14.83;61.71;100029.53;1672778;83;20218;-55
2022/05/28 04:12:19;;;;;;;;;;;;;;;14.83;61.67;100032.29;1658701;86;20212;-60
2022/05/28 04:15:28;;;;;;;;;;;;;;;14.84;61.70;100036.77;1694233;84;20200;-56
2022/05/28 04:18:35;;;;;;;;;;;;;;;14.86;61.71;100029.11;1684443;84;20188;-57
2022/05/28 04:21:42;;;;;;;;;;;;;;;14.87;61.67;100033.58;1693427;85;20259;-59
2022/05/28 04:24:46;;;;;;;;;;;;;;;14.85;61.65;100036.55;1685380;84;20246;-58
2022/05/28 04:27:51;;;;;;;;;;;;;;;14.88;61.62;100033.89;1726490;82;20236;-57
2022/05/28 04:31:01;;;;;;;;;;;;;;;14.86;61.50;100045.64;1705276;83;20322;-57
2022/05/28 04:34:07;;;;;;;;;;;;;;;14.77;61.44;100039.52;1704459;83;20225;-57
2022/05/28 04:37:14;;;;;;;;;;;;;;;14.74;61.47;100040.45;1710798;82;20573;-58
2022/05/28 04:40:21;;;;;;;;;;;;;;;14.72;61.45;100042.56;1701336;83;20521;-58
2022/05/28 04:43:27;;;;;;;;;;;;;;;14.69;61.37;100036.10;1716011;82;20539;-58
2022/05/28 04:46:33;;;;;;;;;;;;;;;14.65;61.37;100051.38;1700056;83;20255;-58
2022/05/28 04:49:43;;;;;;;;;;;;;;;14.65;61.38;100052.20;1696847;84;20238;-57
2022/05/28 04:52:50;;;;;;;;;;;;;;;14.64;61.39;100056.55;1680305;85;20262;-60
2022/05/28 04:55:56;;;;;;;;;;;;;;;14.62;61.36;100060.89;1688610;83;20195;-60
2022/05/28 04:59:06;;;;;;;;;;;;;;;14.62;61.37;100066.40;1655876;85;20199;-60
2022/05/28 05:02:12;;;;;;;;;;;;;;;14.64;61.37;100080.82;1657493;87;20196;-59
2022/05/28 05:05:18;;;;;;;;;;;;;;;14.62;61.30;100096.70;1634964;86;20231;-59
2022/05/28 05:08:29;;;;;;;;;;;;;;;14.60;61.28;100095.23;1681336;85;20218;-60
2022/05/28 05:11:36;;;;;;;;;;;;;;;14.61;61.33;100090.02;1683173;85;20223;-60
2022/05/28 05:14:42;;;;;;;;;;;;;;;14.62;61.31;100076.56;1682841;85;20214;-59
2022/05/28 05:17:50;;;;;;;;;;;;;;;14.64;61.30;100075.83;1682991;84;20217;-61
2022/05/28 05:20:58;;;;;;;;;;;;;;;14.66;61.29;100076.48;1682947;84;20586;-64
2022/05/28 05:24:03;;;;;;;;;;;;;;;14.65;61.30;100096.28;1683208;83;20254;-61
2022/05/28 05:27:08;;;;;;;;;;;;;;;14.61;61.25;100085.38;1683881;85;20222;-61
2022/05/28 05:30:14;;;;;;;;;;;;;;;14.60;61.26;100085.59;1683914;84;20594;-62
2022/05/28 05:33:20;;;;;;;;;;;;;;;14.53;61.24;100102.61;1684119;84;20222;-63
2022/05/28 05:36:27;;;;;;;;;;;;;;;14.48;61.24;100116.16;1681460;84;20214;-63
2022/05/28 05:39:31;;;;;;;;;;;;;;;14.45;61.33;100117.95;1687569;82;20214;-61
2022/05/28 05:42:36;;;;;;;;;;;;;;;14.42;61.32;100110.11;1682629;85;20202;-64
2022/05/28 05:45:41;;;;;;;;;;;;;;;14.39;61.32;100105.02;1672875;85;20547;-61
2022/05/28 05:48:48;;;;;;;;;;;;;;;14.37;61.39;100125.02;1683293;85;20198;-63
2022/05/28 05:51:55;;;;;;;;;;;;;;;14.42;61.42;100123.88;1682549;84;20217;-63
2022/05/28 05:55:03;;;;;;;;;;;;;;;14.45;61.42;100116.05;1683680;83;20863;-63
2022/05/28 05:58:08;;;;;;;;;;;;;;;14.46;61.39;100130.13;1676055;83;20598;-62
2022/05/28 06:01:15;;;;;;;;;;;;;;;14.55;61.42;100128.05;1656855;84;20256;-60
2022/05/28 06:04:22;;;;;;;;;;;;;;;14.65;61.42;100136.78;1656869;85;20654;-62
2022/05/28 06:07:27;;;;;;;;;;;;;;;14.69;61.33;100129.78;1655478;86;20225;-62
2022/05/28 06:10:32;;;;;;;;;;;;;;;14.70;61.27;100128.72;1656216;85;20280;-62
2022/05/28 06:13:38;;;;;;;;;;;;;;;14.69;61.18;100125.65;1664045;84;20278;-62
2022/05/28 06:16:45;;;;;;;;;;;;;;;14.67;61.13;100131.89;1656727;86;20612;-61
2022/05/28 06:19:49;;;;;;;;;;;;;;;14.67;61.15;100134.64;1656550;85;20208;-62
2022/05/28 06:22:54;;;;;;;;;;;;;;;14.69;61.16;100129.27;1657895;86;20603;-63
2022/05/28 06:26:01;;;;;;;;;;;;;;;14.74;61.16;100145.16;1663044;85;20227;-61
2022/05/28 06:29:07;;;;;;;;;;;;;;;14.78;61.18;100141.78;1668781;84;20219;-63
2022/05/28 06:32:13;;;;;;;;;;;;;;;14.92;61.20;100138.54;1670426;86;20223;-62
2022/05/28 06:35:18;;;;;;;;;;;;;;;15.06;61.15;100128.36;1670161;84;20211;-61
2022/05/28 06:38:25;;;;;;;;;;;;;;;15.18;61.08;100134.41;1670328;84;20567;-61
2022/05/28 06:41:30;;;;;;;;;;;;;;;15.29;61.01;100140.67;1670190;86;20532;-60
2022/05/28 06:44:37;;;;;;;;;;;;;;;15.41;61.00;100124.38;1682043;84;20199;-61
2022/05/28 06:47:42;;;;;;;;;;;;;;;15.57;60.96;100142.70;1705356;84;20280;-63
2022/05/28 06:51:04;;;;;;;;;;;;;;;15.66;60.83;100141.44;1705180;84;20557;-59
2022/05/28 06:54:09;;;;;;;;;;;;;;;15.64;60.72;100133.89;1705676;84;20193;-62
2022/05/28 06:57:14;;;;;;;;;;;;;;;15.72;60.71;100142.47;1706001;84;20252;-61
2022/05/28 07:00:21;;;;;;;;;;;;;;;15.87;60.68;100135.64;1680890;84;20643;-64
2022/05/28 07:03:28;;;;;;;;;;;;;;;16.05;60.63;100136.34;1678771;84;20273;-63
2022/05/28 07:06:35;;;;;;;;;;;;;;;16.23;60.52;100135.98;1678863;85;20223;-65
2022/05/28 07:09:42;;;;;;;;;;;;;;;16.44;60.40;100142.59;1678049;84;20607;-58
2022/05/28 07:12:49;;;;;;;;;;;;;;;16.54;60.14;100126.10;1678454;85;20242;-57
2022/05/28 07:15:55;;;;;;;;;;;;;;;16.62;60.02;100129.44;1679707;85;20219;-58
2022/05/28 07:19:01;;;;;;;;;;;;;;;16.73;59.88;100121.00;1679416;84;20218;-57
2022/05/28 07:22:08;;;;;;;;;;;;;;;16.90;59.91;100122.16;1679055;85;20564;-59
2022/05/28 07:25:16;;;;;;;;;;;;;;;17.11;59.87;100134.25;1664301;85;20274;-61
2022/05/28 07:28:32;;;;;;;;;;;;;;;17.30;59.82;100134.08;1702517;82;20279;-58
2022/05/28 07:31:35;;;;;;;;;;;;;;;17.47;59.60;100136.61;1716356;83;20247;-56
2022/05/28 07:34:43;;;;;;;;;;;;;;;17.63;59.53;100140.20;1716949;82;20611;-59
2022/05/28 07:37:50;;;;;;;;;;;;;;;17.76;59.39;100148.39;1707066;83;20549;-57
2022/05/28 07:41:12;;;;;;;;;;;;;;;17.81;59.24;100158.77;1715004;84;20556;-58
2022/05/28 07:44:19;;;;;;;;;;;;;;;17.82;59.20;100157.16;1692529;84;20217;-58
2022/05/28 07:47:24;;;;;;;;;;;;;;;17.83;59.14;100164.94;1704085;84;20675;-59
2022/05/28 07:50:30;;;;;;;;;;;;;;;17.78;58.97;100162.00;1704332;84;20244;-58
2022/05/28 07:53:35;;;;;;;;;;;;;;;17.76;58.95;100173.83;1704273;82;20596;-58
2022/05/28 07:56:40;;;;;;;;;;;;;;;17.77;58.83;100174.16;1703065;84;20240;-58
2022/05/28 07:59:45;;;;;;;;;;;;;;;17.82;58.84;100178.48;1702190;83;20412;-58
2022/05/28 08:02:50;;;;;;;;;;;;;;;17.90;58.78;100171.28;1675233;85;20203;-57
2022/05/28 08:05:57;;;;;;;;;;;;;;;17.98;58.74;100182.59;1675295;85;20211;-58
2022/05/28 08:09:04;;;;;;;;;;;;;;;17.99;58.60;100178.73;1683897;83;20467;-58
2022/05/28 08:12:17;;;;;;;;;;;;;;;18.05;58.62;100183.35;1633387;85;20209;-58
2022/05/28 08:15:21;;;;;;;;;;;;;;;18.13;58.49;100186.69;1677906;84;20257;-58
2022/05/28 08:18:30;;;;;;;;;;;;;;;18.24;58.44;100182.30;1703683;84;20596;-58
2022/05/28 08:24:56;;;;;;;;;;;;;;;18.45;58.27;100177.19;1703195;84;20220;-57
2022/05/28 08:28:02;;;;;;;;;;;;;;;18.51;58.04;100174.02;1703189;83;20228;-58
2022/05/28 08:31:09;;;;;;;;;;;;;;;18.53;57.91;100174.63;1674051;86;20223;-58
2022/05/28 08:34:14;;;;;;;;;;;;;;;18.62;57.91;100183.80;1702685;83;20213;-60
2022/05/28 08:37:20;;;;;;;;;;;;;;;18.70;57.76;100193.18;1703072;84;20449;-58
2022/05/28 08:40:25;;;;;;;;;;;;;;;18.74;57.68;100196.34;1700431;84;20212;-59
2022/05/28 08:43:29;;;;;;;;;;;;;;;18.78;57.61;100203.95;1704327;83;20209;-58
2022/05/28 08:46:38;;;;;;;;;;;;;;;18.78;57.53;100202.57;1706374;84;20212;-58
2022/05/28 08:49:44;;;;;;;;;;;;;;;18.84;57.51;100203.55;1707857;84;20211;-57
2022/05/28 08:52:53;;;;;;;;;;;;;;;18.90;57.40;100204.85;1679709;85;20249;-58
2022/05/28 08:56:00;;;;;;;;;;;;;;;18.95;57.34;100198.06;1702046;82;20252;-60
2022/05/28 08:59:14;;;;;;;;;;;;;;;18.94;57.21;100195.53;1702601;83;20248;-58
2022/05/28 09:02:25;;;;;;;;;;;;;;;18.86;57.15;100190.30;1685449;84;20205;-59
2022/05/28 09:05:36;;;;;;;;;;;;;;;18.81;57.16;100199.33;1707051;84;20243;-58
2022/05/28 09:08:52;;;;;;;;;;;;;;;18.74;57.11;100206.87;1708216;84;20248;-58
2022/05/28 09:12:07;;;;;;;;;;;;;;;18.73;57.18;100201.03;1708772;84;20216;-58
2022/05/28 09:15:13;;;;;;;;;;;;;;;18.86;57.09;100207.80;1690331;84;20545;-56
2022/05/28 09:18:19;;;;;;;;;;;;;;;18.97;57.00;100218.64;1707670;84;20220;-57
2022/05/28 09:21:26;;;;;;;;;;;;;;;18.96;56.83;100216.95;1687676;84;20213;-58
2022/05/28 09:24:36;;;;;;;;;;;;;;;18.99;56.75;100217.34;1706991;84;20220;-58
2022/05/28 09:28:03;;;;;;;;;;;;;;;19.14;56.78;100217.75;1708364;84;20220;-58
2022/05/28 09:31:13;;;;;;;;;;;;;;;19.31;56.56;100216.03;1708560;84;20212;-57
2022/05/28 09:34:23;;;;;;;;;;;;;;;19.46;56.49;100218.91;1708117;84;20204;-59
2022/05/28 09:37:52;;;;;;;;;;;;;;;19.65;56.48;100219.13;1708624;84;20208;-59
2022/05/28 09:40:58;;;;;;;;;;;;;;;19.90;56.41;100218.41;1708197;84;20216;-58
2022/05/28 09:44:28;;;;;;;;;;;;;;;20.09;56.19;100208.88;1706033;83;20204;-60
2022/05/28 09:47:34;;;;;;;;;;;;;;;20.17;55.99;100202.98;1705401;84;20236;-57
2022/05/28 09:50:47;;;;;;;;;;;;;;;20.19;55.78;100202.18;1704295;84;20212;-59
2022/05/28 09:56:49;;;;;;;;;;;;;;;20.15;55.55;100184.31;1643807;84;20584;-58
2022/05/28 09:59:39;;;;;;;;;;;;;;;20.13;55.50;100187.30;1702273;84;20569;-58
2022/05/28 10:02:42;;;;;;;;;;;;;;;20.12;55.51;100185.59;1703609;84;20220;-59
2022/05/28 10:05:56;;;;;;;;;;;;;;;20.12;55.50;100188.93;1703444;84;20577;-60
2022/05/28 10:09:00;;;;;;;;;;;;;;;20.21;55.51;100195.84;1694992;84;20212;-60
2022/05/28 10:12:07;;;;;;;;;;;;;;;20.28;55.47;100193.80;1703553;84;20225;-60
2022/05/28 10:15:24;;;;;;;;;;;;;;;20.33;55.41;100203.61;1702963;84;20232;-60
2022/05/28 10:18:30;;;;;;;;;;;;;;;20.25;55.27;100208.15;1702885;84;20220;-58
2022/05/28 10:21:41;;;;;;;;;;;;;;;20.22;55.25;100204.47;1702160;84;20248;-59
2022/05/28 10:24:51;;;;;;;;;;;;;;;20.40;55.30;100194.08;1701003;84;20512;-59
2022/05/28 10:28:00;;;;;;;;;;;;;;;20.60;55.14;100195.91;1701946;84;20511;-59
2022/05/28 10:31:06;;;;;;;;;;;;;;;20.81;54.94;100194.39;1702243;84;20209;-59
2022/05/28 10:34:12;;;;;;;;;;;;;;;20.99;54.77;100182.27;1702998;84;20212;-59
2022/05/28 10:37:19;;;;;;;;;;;;;;;21.15;54.70;100192.07;1703055;84;20244;-60
2022/05/28 10:40:32;;;;;;;;;;;;;;;21.22;54.55;100187.17;1675033;85;20218;-57
2022/05/28 10:43:38;;;;;;;;;;;;;;;21.35;54.49;100176.27;1623141;88;20207;-59
2022/05/28 10:46:53;;;;;;;;;;;;;;;21.53;54.40;100162.95;1701630;84;20597;-59
2022/05/28 10:50:13;;;;;;;;;;;;;;;21.70;54.16;100165.22;1703901;84;20220;-58
2022/05/28 10:53:29;;;;;;;;;;;;;;;21.67;53.87;100161.55;1698751;84;20632;-59
2022/05/28 10:57:01;;;;;;;;;;;;;;;21.60;53.63;100153.89;1675818;86;20223;-58
2022/05/28 11:00:20;;;;;;;;;;;;;;;21.39;53.40;100149.63;1679900;84;20248;-58
2022/05/28 11:03:50;;;;;;;;;;;;;;;21.28;53.44;100152.75;1675237;86;20215;-59
2022/05/28 11:07:17;;;;;;;;;;;;;;;21.34;53.45;100147.60;1674596;86;20219;-57
2022/05/28 11:10:43;;;;;;;;;;;;;;;21.59;53.45;100141.61;1675664;86;20199;-57
2022/05/28 11:14:26;;;;;;;;;;;;;;;21.87;53.43;100132.63;1671188;86;20215;-59
2022/05/28 11:17:41;;;;;;;;;;;;;;;22.17;53.23;100132.23;1677453;84;20219;-58
2022/05/28 11:20:53;;;;;;;;;;;;;;;22.41;53.06;100136.47;1701063;84;20719;-59
2022/05/28 11:24:22;;;;;;;;;;;;;;;22.60;52.79;100123.07;1660637;84;20236;-59
2022/05/28 11:27:46;;;;;;;;;;;;;;;22.82;52.56;100125.28;1648495;85;20225;-60
2022/05/28 11:30:56;;;;;;;;;;;;;;;23.00;52.25;100134.17;1647138;87;20225;-58
2022/05/28 11:34:01;;;;;;;;;;;;;;;22.96;51.80;100137.77;1652192;85;20213;-58
2022/05/28 11:37:13;;;;;;;;;;;;;;;22.80;51.53;100130.31;1620082;88;20225;-56
2022/05/28 11:40:34;;;;;;;;;;;;;;;22.74;51.40;100134.97;1625302;87;20250;-57
2022/05/28 11:44:07;;;;;;;;;;;;;;;22.74;51.30;100134.97;1640773;87;20253;-59
2022/05/28 11:47:31;;;;;;;;;;;;;;;22.75;51.27;100124.66;1618838;87;20273;-58
2022/05/28 11:54:20;;;;;;;;;;;;;;;22.96;51.01;100117.64;1621978;88;20615;-59
2022/05/28 11:57:38;;;;;;;;;;;;;;;22.81;50.74;100106.86;1620813;88;20253;-58
2022/05/28 12:00:45;;;;;;;;;;;;;;;22.66;50.57;100106.13;1597545;90;20254;-59
2022/05/28 12:03:55;;;;;;;;;;;;;;;22.61;50.51;100101.05;1602957;89;20197;-59
2022/05/28 12:07:08;;;;;;;;;;;;;;;22.55;50.35;100116.88;1603145;89;20213;-58
2022/05/28 12:10:16;;;;;;;;;;;;;;;22.40;50.20;100114.42;1615473;88;20248;-59
2022/05/28 12:13:36;;;;;;;;;;;;;;;22.23;49.97;100113.92;1628274;88;20372;-58
2022/05/28 12:16:43;;;;;;;;;;;;;;;22.11;49.82;100117.92;1621377;88;20577;-58
2022/05/28 12:19:58;;;;;;;;;;;;;;;22.06;49.67;100125.67;1606355;88;20606;-59
2022/05/28 12:23:05;;;;;;;;;;;;;;;22.06;49.65;100131.25;1618700;88;20583;-59
2022/05/28 12:26:46;;;;;;;;;;;;;;;22.20;49.67;100128.92;1613144;88;20215;-58
2022/05/28 12:29:45;;;;;;;;;;;;;;;22.32;49.59;100133.84;1604597;88;20294;-58
2022/05/28 12:32:52;;;;;;;;;;;;;;;22.35;49.34;100135.27;1628235;88;20619;-59
2022/05/28 12:36:20;;;;;;;;;;;;;;;22.41;49.23;100130.04;1619726;88;20260;-58
2022/05/28 12:39:33;;;;;;;;;;;;;;;22.42;49.09;100143.73;1626875;88;20282;-57
2022/05/28 12:42:39;;;;;;;;;;;;;;;22.33;48.91;100138.86;1628611;87;20596;-56
2022/05/28 12:45:52;;;;;;;;;;;;;;;22.36;48.80;100128.03;1643558;87;20260;-58
2022/05/28 12:49:03;;;;;;;;;;;;;;;22.49;48.75;100136.03;1639076;87;20836;-59
2022/05/28 12:52:24;;;;;;;;;;;;;;;22.66;48.62;100130.42;1634490;87;20227;-56
2022/05/28 12:55:41;;;;;;;;;;;;;;;22.65;48.50;100134.30;1628115;87;20245;-58
2022/05/28 12:58:47;;;;;;;;;;;;;;;22.46;48.28;100132.36;1625330;87;20578;-57
2022/05/28 13:02:06;;;;;;;;;;;;;;;22.26;48.17;100135.43;1642413;87;20183;-58
2022/05/28 13:05:39;;;;;;;;;;;;;;;22.17;48.06;100130.84;1615161;89;20583;-59
2022/05/28 13:08:49;;;;;;;;;;;;;;;22.06;47.99;100136.83;1621080;87;20272;-59
2022/05/28 13:12:02;;;;;;;;;;;;;;;22.10;47.97;100136.59;1636846;87;20210;-59
2022/05/28 13:15:25;;;;;;;;;;;;;;;22.16;47.82;100128.62;1630806;87;20259;-62
2022/05/28 13:18:51;;;;;;;;;;;;;;;22.14;47.63;100140.57;1644532;86;20247;-58
2022/05/28 13:22:09;;;;;;;;;;;;;;;22.09;47.47;100138.24;1645228;86;20260;-60
2022/05/28 13:25:32;;;;;;;;;;;;;;;22.08;47.44;100142.14;1611127;88;20221;-57
2022/05/28 13:29:03;;;;;;;;;;;;;;;22.09;47.40;100143.28;1605193;88;20245;-57
2022/05/28 13:32:19;;;;;;;;;;;;;;;22.16;47.33;100152.32;1614149;88;20257;-58
2022/05/28 13:35:26;;;;;;;;;;;;;;;22.31;47.24;100149.45;1619030;88;20520;-55
2022/05/28 13:38:44;;;;;;;;;;;;;;;22.39;47.02;100142.03;1605572;88;20235;-55
2022/05/28 13:41:51;;;;;;;;;;;;;;;22.49;46.91;100135.17;1613734;88;20713;-60
2022/05/28 13:44:58;;;;;;;;;;;;;;;22.73;46.81;100138.03;1611956;88;20236;-59
2022/05/28 13:48:05;;;;;;;;;;;;;;;22.91;46.60;100145.50;1629814;85;20542;-60
2022/05/28 13:51:14;;;;;;;;;;;;;;;22.90;46.47;100149.95;1638518;87;20263;-58
2022/05/28 13:54:21;;;;;;;;;;;;;;;22.81;46.31;100148.20;1653089;86;20224;-60
2022/05/28 13:57:29;;;;;;;;;;;;;;;22.80;46.23;100145.09;1650791;87;20265;-61
2022/05/28 14:00:38;;;;;;;;;;;;;;;22.86;46.17;100143.22;1647641;87;20811;-58
2022/05/28 14:03:45;;;;;;;;;;;;;;;22.86;46.00;100140.42;1655209;86;20232;-60
2022/05/28 14:07:00;;;;;;;;;;;;;;;22.77;45.81;100153.17;1630161;87;20271;-61
2022/05/28 14:10:08;;;;;;;;;;;;;;;22.68;45.74;100140.21;1629813;88;20215;-60
2022/05/28 14:13:13;;;;;;;;;;;;;;;22.69;45.69;100139.67;1629515;88;20223;-59
2022/05/28 14:16:29;;;;;;;;;;;;;;;22.67;45.54;100141.87;1629778;88;20588;-61
2022/05/28 14:19:38;;;;;;;;;;;;;;;22.55;45.44;100135.02;1629635;88;20231;-58
2022/05/28 14:22:46;;;;;;;;;;;;;;;22.43;45.41;100139.86;1629542;88;20219;-60
2022/05/28 14:25:53;;;;;;;;;;;;;;;22.32;45.32;100139.43;1629805;88;20267;-59
2022/05/28 14:28:59;;;;;;;;;;;;;;;22.27;45.31;100144.94;1629719;88;20299;-60
2022/05/28 14:32:08;;;;;;;;;;;;;;;22.27;45.30;100144.08;1655218;87;20252;-57
2022/05/28 14:35:18;;;;;;;;;;;;;;;22.27;45.18;100142.69;1655788;85;20605;-60
2022/05/28 14:38:35;;;;;;;;;;;;;;;22.23;45.07;100140.98;1612750;88;20527;-59
2022/05/28 14:41:43;;;;;;;;;;;;;;;22.30;45.12;100142.17;1639214;87;20228;-59
2022/05/28 14:44:48;;;;;;;;;;;;;;;22.44;45.03;100129.55;1656317;86;20234;-56
2022/05/28 14:47:55;;;;;;;;;;;;;;;22.61;44.92;100131.75;1647305;87;20220;-56
2022/05/28 14:51:01;;;;;;;;;;;;;;;22.56;44.78;100143.70;1702858;84;20218;-56
2022/05/28 14:54:07;;;;;;;;;;;;;;;22.48;44.77;100137.14;1703579;84;20612;-56
2022/05/28 14:57:13;;;;;;;;;;;;;;;22.48;44.71;100133.50;1649583;87;20225;-57
2022/05/28 15:00:23;;;;;;;;;;;;;;;22.43;44.61;100139.00;1703053;84;20507;-57
2022/05/28 15:03:38;;;;;;;;;;;;;;;22.38;44.52;100139.78;1705786;82;20210;-56
2022/05/28 15:06:45;;;;;;;;;;;;;;;22.32;44.52;100133.00;1703917;82;20243;-56
2022/05/28 15:09:55;;;;;;;;;;;;;;;22.28;44.48;100145.78;1705037;82;20544;-60
2022/05/28 15:13:29;;;;;;;;;;;;;;;22.31;44.40;100136.91;1702389;84;20224;-57
2022/05/28 15:16:34;;;;;;;;;;;;;;;22.34;44.23;100140.03;1706015;84;20217;-57
2022/05/28 15:19:40;;;;;;;;;;;;;;;22.29;44.20;100136.30;1704483;84;20224;-58
2022/05/28 15:22:47;;;;;;;;;;;;;;;22.23;44.12;100152.14;1704718;84;20666;-60
2022/05/28 15:25:55;;;;;;;;;;;;;;;22.21;44.07;100157.12;1701406;82;20529;-58
2022/05/28 15:29:01;;;;;;;;;;;;;;;22.39;44.00;100158.20;1647845;87;20254;-59
2022/05/28 15:32:08;;;;;;;;;;;;;;;22.59;43.83;100154.88;1704401;83;20205;-60
2022/05/28 15:35:16;;;;;;;;;;;;;;;22.78;43.67;100161.82;1704406;84;20212;-59
2022/05/28 15:38:24;;;;;;;;;;;;;;;22.73;43.42;100157.56;1704221;84;20232;-60
2022/05/28 15:41:29;;;;;;;;;;;;;;;22.64;43.36;100160.53;1682323;84;20223;-58
2022/05/28 15:44:35;;;;;;;;;;;;;;;22.50;43.36;100161.42;1675425;84;20212;-59
2022/05/28 15:47:39;;;;;;;;;;;;;;;22.43;43.32;100164.97;1646232;86;20455;-58
2022/05/28 15:50:46;;;;;;;;;;;;;;;22.34;43.29;100158.70;1643849;87;20269;-58
2022/05/28 15:53:50;;;;;;;;;;;;;;;22.24;43.29;100167.77;1637492;87;20678;-58
2022/05/28 15:56:55;;;;;;;;;;;;;;;22.14;43.24;100161.48;1611050;89;20216;-63
2022/05/28 16:00:02;;;;;;;;;;;;;;;22.02;43.24;100170.48;1645101;87;20593;-59
2022/05/28 16:03:07;;;;;;;;;;;;;;;21.89;43.21;100164.43;1651694;86;20227;-59
2022/05/28 16:06:12;;;;;;;;;;;;;;;21.96;43.22;100164.54;1643997;87;20497;-60
2022/05/28 16:09:19;;;;;;;;;;;;;;;22.04;43.17;100171.08;1643923;87;20221;-59
2022/05/28 16:12:27;;;;;;;;;;;;;;;22.33;43.10;100170.39;1659499;86;20227;-60
2022/05/28 16:15:31;;;;;;;;;;;;;;;22.68;43.06;100176.49;1668798;85;20612;-60
2022/05/28 16:18:36;;;;;;;;;;;;;;;23.02;42.90;100163.23;1641466;87;20221;-57
2022/05/28 16:21:42;;;;;;;;;;;;;;;22.98;42.76;100170.42;1671824;86;20519;-59
2022/05/28 16:24:48;;;;;;;;;;;;;;;22.78;42.79;100170.19;1649531;85;20628;-59